Time;durP1;ratioP1;P1;durP2;ratioP2;P2;SDS_P1;SDS_P2;PMS_P1;PMS_P2;Temp;Humidity;BMP_temperature;BMP_pressure;BME280_temperature;BME280_humidity;BME280_pressure;Samples;Min_cycle;Max_cycle;Signal;HPM_P1;HPM_P2
2022/09/16 00:00:52;;;;;;;5.80;1.05;;;12.40;99.90;;;;;;5090498;28;20217;-63
2022/09/16 00:03:18;;;;;;;2.70;0.77;;;12.40;99.90;;;;;;5080895;28;20413;-63
2022/09/16 00:05:49;;;;;;;6.47;1.40;;;12.40;99.90;;;;;;5073155;28;20048;-63
2022/09/16 00:08:17;;;;;;;2.33;1.00;;;12.40;99.90;;;;;;5089824;28;20119;-63
2022/09/16 00:10:43;;;;;;;2.50;0.93;;;12.40;99.90;;;;;;5091143;28;20029;-63
2022/09/16 00:13:09;;;;;;;4.03;0.90;;;12.40;99.90;;;;;;5069443;28;20050;-64
2022/09/16 00:15:35;;;;;;;4.47;1.02;;;12.40;99.90;;;;;;5096053;28;20516;-64
2022/09/16 00:18:01;;;;;;;5.82;1.10;;;12.40;99.90;;;;;;5095901;28;20032;-63
2022/09/16 00:20:27;;;;;;;6.82;1.75;;;12.50;99.90;;;;;;5098663;28;20089;-63
2022/09/16 00:22:53;;;;;;;4.68;1.00;;;12.50;99.90;;;;;;5098952;28;20028;-63
2022/09/16 00:25:19;;;;;;;4.63;1.00;;;12.50;99.90;;;;;;5096416;28;20153;-63
2022/09/16 00:27:47;;;;;;;3.22;0.82;;;12.50;99.90;;;;;;5094153;28;20111;-63
2022/09/16 00:30:13;;;;;;;3.92;0.80;;;12.60;99.90;;;;;;5088488;28;20082;-63
2022/09/16 00:32:39;;;;;;;3.58;1.10;;;12.50;99.90;;;;;;5089940;28;20082;-63
2022/09/16 00:35:05;;;;;;;4.60;1.33;;;12.60;99.90;;;;;;5091779;28;20032;-63
2022/09/16 00:37:32;;;;;;;3.40;0.90;;;12.60;99.90;;;;;;5090029;28;20032;-63
2022/09/16 00:39:57;;;;;;;4.78;0.80;;;12.60;99.90;;;;;;5083288;28;20485;-63
2022/09/16 00:42:26;;;;;;;5.10;0.98;;;12.60;99.90;;;;;;5092146;28;20043;-63
2022/09/16 00:45:04;;;;;;;5.00;1.08;;;12.60;99.90;;;;;;5091631;28;20039;-63
2022/09/16 00:47:34;;;;;;;1.15;0.60;;;12.60;99.90;;;;;;5097920;28;20039;-63
2022/09/16 00:50:11;;;;;;;6.45;1.20;;;12.60;99.90;;;;;;5070449;28;20032;-63
2022/09/16 00:52:39;;;;;;;2.70;0.80;;;12.60;99.90;;;;;;5098037;28;20090;-63
2022/09/16 00:55:08;;;;;;;5.15;1.15;;;12.50;99.90;;;;;;5095192;28;20036;-63
2022/09/16 00:57:34;;;;;;;3.95;0.98;;;12.60;99.90;;;;;;5089467;28;20129;-63
2022/09/16 01:00:01;;;;;;;4.00;0.90;;;12.60;99.90;;;;;;5089676;28;20044;-63
2022/09/16 01:02:27;;;;;;;3.75;0.90;;;12.60;99.90;;;;;;5094526;28;20040;-63
2022/09/16 01:04:56;;;;;;;3.60;0.95;;;12.60;99.90;;;;;;5081359;28;20051;-63
2022/09/16 01:07:46;;;;;;;3.45;1.20;;;12.60;99.90;;;;;;5082932;28;20115;-63
2022/09/16 01:10:14;;;;;;;3.08;0.85;;;12.70;99.90;;;;;;5058906;28;20486;-63
2022/09/16 01:12:42;;;;;;;7.35;1.20;;;12.70;99.90;;;;;;5071278;28;20043;-63
2022/09/16 01:15:09;;;;;;;3.03;0.73;;;12.60;99.90;;;;;;5094862;28;20036;-63
2022/09/16 01:17:42;;;;;;;5.57;1.00;;;12.70;99.90;;;;;;5088992;28;20153;-63
2022/09/16 01:20:38;;;;;;;1.60;0.80;;;12.70;99.90;;;;;;5083386;28;20117;-63
2022/09/16 01:23:35;;;;;;;6.85;1.48;;;12.80;99.90;;;;;;5068849;28;20505;-63
2022/09/16 01:26:19;;;;;;;2.70;1.00;;;12.70;99.90;;;;;;5098620;28;20066;-63
2022/09/16 01:28:53;;;;;;;5.97;1.10;;;12.70;99.90;;;;;;5070531;28;20405;-63
2022/09/16 01:31:50;;;;;;;4.80;1.50;;;12.70;99.90;;;;;;5090099;28;20036;-63
2022/09/16 01:34:45;;;;;;;2.70;0.90;;;12.70;99.90;;;;;;5070414;28;20496;-63
2022/09/16 01:37:21;;;;;;;4.28;0.90;;;12.70;99.90;;;;;;5035860;28;20056;-63
2022/09/16 01:39:59;;;;;;;1.95;0.90;;;12.70;99.90;;;;;;5077077;28;20036;-63
2022/09/16 01:42:48;;;;;;;3.33;0.80;;;12.70;99.90;;;;;;5065905;28;20040;-63
2022/09/16 01:45:26;;;;;;;4.70;1.00;;;12.60;99.90;;;;;;5082580;28;20036;-63
2022/09/16 01:47:56;;;;;;;5.03;1.15;;;12.60;99.90;;;;;;5061972;28;20512;-63
2022/09/16 01:50:25;;;;;;;3.72;1.00;;;12.60;99.90;;;;;;5064462;28;20133;-63
2022/09/16 01:53:06;;;;;;;2.33;1.00;;;12.60;99.90;;;;;;5103910;28;20071;-63
2022/09/16 01:55:57;;;;;;;4.15;1.08;;;12.60;99.90;;;;;;5073988;28;20043;-63
2022/09/16 01:58:52;;;;;;;3.65;0.90;;;12.60;99.90;;;;;;5069514;28;20032;-63
2022/09/16 02:01:31;;;;;;;5.32;0.90;;;12.60;99.90;;;;;;5067588;28;20052;-63
2022/09/16 02:04:06;;;;;;;6.78;0.98;;;12.60;99.90;;;;;;5071506;28;20058;-63
2022/09/16 02:06:33;;;;;;;5.40;0.95;;;12.50;99.90;;;;;;5091831;28;20044;-63
2022/09/16 02:09:08;;;;;;;3.92;0.95;;;12.50;99.90;;;;;;5091157;28;20494;-63
2022/09/16 02:11:35;;;;;;;6.38;1.20;;;12.50;99.90;;;;;;5070634;28;20047;-63
2022/09/16 02:14:08;;;;;;;4.25;1.10;;;12.50;99.90;;;;;;5091716;28;20563;-63
2022/09/16 02:16:41;;;;;;;7.43;1.20;;;12.50;99.90;;;;;;5103691;28;20088;-63
2022/09/16 02:19:11;;;;;;;3.40;0.95;;;12.50;99.90;;;;;;5072099;28;20055;-63
2022/09/16 02:21:39;;;;;;;6.75;0.80;;;12.50;99.90;;;;;;5100292;28;20040;-63
2022/09/16 02:24:10;;;;;;;5.93;0.93;;;12.50;99.90;;;;;;5088195;28;20036;-63
2022/09/16 02:26:45;;;;;;;3.75;1.08;;;12.50;99.90;;;;;;5092354;28;20032;-63
2022/09/16 02:29:22;;;;;;;5.18;1.10;;;12.50;99.90;;;;;;5092366;28;20126;-64
2022/09/16 02:31:51;;;;;;;4.55;0.90;;;12.50;99.90;;;;;;5072792;28;20036;-63
2022/09/16 02:34:26;;;;;;;3.28;0.80;;;12.50;99.90;;;;;;5090768;28;20028;-63
2022/09/16 02:37:00;;;;;;;4.60;1.00;;;12.40;99.90;;;;;;5090942;28;20383;-63
2022/09/16 02:39:29;;;;;;;2.35;1.00;;;12.50;99.90;;;;;;5072730;28;20407;-63
2022/09/16 02:41:56;;;;;;;6.10;1.05;;;12.50;99.90;;;;;;5074488;28;20109;-63
2022/09/16 02:44:24;;;;;;;3.83;1.13;;;12.40;99.90;;;;;;5073403;28;20047;-63
2022/09/16 02:47:09;;;;;;;4.80;1.10;;;12.40;99.90;;;;;;5054781;28;20039;-63
2022/09/16 02:49:52;;;;;;;4.85;1.15;;;12.40;99.90;;;;;;5069610;28;20102;-63
2022/09/16 02:52:41;;;;;;;3.15;1.00;;;12.30;99.90;;;;;;5091918;28;20032;-63
2022/09/16 02:55:23;;;;;;;5.90;1.52;;;12.30;99.90;;;;;;5091668;28;20402;-63
2022/09/16 02:57:49;;;;;;;3.05;1.02;;;12.20;99.90;;;;;;5056513;28;20040;-63
2022/09/16 03:00:15;;;;;;;7.03;1.30;;;12.20;99.90;;;;;;5089796;28;20111;-63
2022/09/16 03:02:41;;;;;;;2.53;1.10;;;12.10;99.90;;;;;;5073996;28;20036;-63
2022/09/16 03:05:08;;;;;;;3.63;0.90;;;12.20;99.90;;;;;;5068885;28;20040;-63
2022/09/16 03:07:34;;;;;;;2.33;0.95;;;12.10;99.90;;;;;;5072966;28;20059;-62
2022/09/16 03:10:01;;;;;;;4.20;1.00;;;12.10;99.90;;;;;;5091535;28;20044;-63
2022/09/16 03:12:51;;;;;;;3.25;1.40;;;12.00;99.90;;;;;;5090152;28;20047;-63
2022/09/16 03:15:25;;;;;;;2.70;1.02;;;12.00;99.90;;;;;;5089969;28;20027;-63
2022/09/16 03:18:05;;;;;;;3.83;1.23;;;12.00;99.90;;;;;;5078891;28;20512;-63
2022/09/16 03:20:36;;;;;;;5.25;1.10;;;12.00;99.90;;;;;;5091158;28;20051;-63
2022/09/16 03:23:11;;;;;;;3.75;0.93;;;12.00;99.90;;;;;;5080033;28;20040;-63
2022/09/16 03:25:38;;;;;;;4.20;1.15;;;12.00;99.90;;;;;;5087363;28;20039;-63
2022/09/16 03:28:23;;;;;;;5.30;1.13;;;11.90;99.90;;;;;;5075054;28;20500;-63
2022/09/16 03:31:09;;;;;;;3.20;0.90;;;12.00;99.90;;;;;;5101924;28;20159;-63
2022/09/16 03:34:02;;;;;;;3.85;1.50;;;11.90;99.90;;;;;;5088245;28;20068;-63
2022/09/16 03:36:32;;;;;;;;;;;12.00;99.90;;;;;;5070321;28;20533;-63
2022/09/16 03:38:59;;;;;;;5.75;1.50;;;12.00;99.90;;;;;;5087318;28;19919;-63
2022/09/16 03:41:28;;;;;;;2.80;1.20;;;12.00;99.90;;;;;;5078229;28;20062;-63
2022/09/16 03:43:56;;;;;;;5.75;1.20;;;12.00;99.90;;;;;;5106178;28;20081;-63
2022/09/16 03:46:22;;;;;;;3.85;1.10;;;12.00;99.90;;;;;;5086634;28;20046;-63
2022/09/16 03:48:48;;;;;;;2.83;0.95;;;12.00;99.90;;;;;;5073786;28;20047;-63
2022/09/16 03:51:14;;;;;;;2.53;1.10;;;12.00;99.90;;;;;;5080647;28;20035;-63
2022/09/16 03:53:40;;;;;;;3.53;1.23;;;12.00;99.90;;;;;;5101396;28;20482;-63
2022/09/16 03:56:06;;;;;;;4.55;1.08;;;11.90;99.90;;;;;;5085313;28;20028;-63
2022/09/16 03:58:31;;;;;;;7.45;1.42;;;11.90;99.90;;;;;;5095067;28;20050;-63
2022/09/16 04:00:57;;;;;;;4.00;1.25;;;11.90;99.90;;;;;;5093154;28;20551;-63
2022/09/16 04:03:23;;;;;;;2.95;1.23;;;11.90;99.90;;;;;;5099075;28;20509;-63
2022/09/16 04:05:53;;;;;;;3.25;1.30;;;11.80;99.90;;;;;;5074241;28;20061;-63
2022/09/16 04:08:19;;;;;;;3.13;1.27;;;11.90;99.90;;;;;;5078365;28;20043;-63
2022/09/16 04:11:04;;;;;;;2.53;1.40;;;11.80;99.90;;;;;;5096971;28;20043;-62
2022/09/16 04:13:30;;;;;;;6.50;1.50;;;11.80;99.90;;;;;;5102593;28;20080;-65
2022/09/16 04:15:56;;;;;;;2.67;1.45;;;11.80;99.90;;;;;;5098734;28;20043;-63
2022/09/16 04:18:22;;;;;;;4.82;1.73;;;11.90;99.90;;;;;;5090092;28;20393;-62
2022/09/16 04:20:47;;;;;;;6.05;1.50;;;11.90;99.90;;;;;;5082235;28;20517;-62
2022/09/16 04:23:13;;;;;;;5.38;1.67;;;11.80;99.90;;;;;;5070938;28;20040;-62
2022/09/16 04:25:39;;;;;;;5.70;1.55;;;11.80;99.90;;;;;;5069917;28;20040;-62
2022/09/16 04:28:06;;;;;;;6.90;2.00;;;11.80;99.90;;;;;;5090039;28;20408;-63
2022/09/16 04:30:32;;;;;;;3.67;1.67;;;11.70;99.90;;;;;;5090291;28;20397;-62
2022/09/16 04:32:58;;;;;;;9.43;1.85;;;11.70;99.90;;;;;;5077391;28;20047;-62
2022/09/16 04:35:24;;;;;;;3.90;1.70;;;11.70;99.90;;;;;;5078411;28;20061;-62
2022/09/16 04:37:51;;;;;;;4.03;1.55;;;11.70;99.90;;;;;;5087625;28;20044;-62
2022/09/16 04:40:17;;;;;;;5.10;1.50;;;11.70;99.90;;;;;;5072185;28;20120;-63
2022/09/16 04:42:50;;;;;;;5.28;1.52;;;11.60;99.90;;;;;;5099390;28;20119;-64
2022/09/16 04:45:15;;;;;;;5.40;1.35;;;11.60;99.90;;;;;;5071478;28;20051;-62
2022/09/16 04:47:41;;;;;;;5.00;1.63;;;11.60;99.90;;;;;;5091870;28;20028;-63
2022/09/16 04:50:07;;;;;;;3.83;1.20;;;11.60;99.90;;;;;;5076054;28;20031;-64
2022/09/16 04:52:33;;;;;;;5.55;1.65;;;11.60;99.90;;;;;;5071263;28;20174;-63
2022/09/16 04:54:59;;;;;;;5.10;1.30;;;11.60;99.90;;;;;;5080386;28;20106;-62
2022/09/16 04:57:24;;;;;;;4.32;1.40;;;11.60;99.90;;;;;;5094806;28;20486;-62
2022/09/16 04:59:50;;;;;;;5.82;1.40;;;11.50;99.90;;;;;;5086258;28;20052;-62
2022/09/16 05:02:15;;;;;;;6.47;1.30;;;11.60;99.90;;;;;;5073980;28;20481;-63
2022/09/16 05:04:41;;;;;;;4.75;1.48;;;11.60;99.90;;;;;;5088227;28;20039;-62
2022/09/16 05:07:07;;;;;;;4.18;1.25;;;11.60;99.90;;;;;;5077518;28;20445;-62
2022/09/16 05:09:34;;;;;;;6.57;1.50;;;11.60;99.90;;;;;;5083236;28;20073;-62
2022/09/16 05:11:59;;;;;;;4.53;1.55;;;11.60;99.90;;;;;;5067892;28;20034;-64
2022/09/16 05:14:26;;;;;;;4.53;1.40;;;11.60;99.90;;;;;;5080518;28;20036;-62
2022/09/16 05:16:51;;;;;;;6.80;1.63;;;11.60;99.90;;;;;;5100135;28;20031;-65
2022/09/16 05:19:17;;;;;;;6.28;1.20;;;11.60;99.90;;;;;;5097458;28;20066;-62
2022/09/16 05:21:43;;;;;;;5.95;1.73;;;11.60;99.90;;;;;;5069296;28;20051;-62
2022/09/16 05:24:10;;;;;;;4.13;1.20;;;11.50;99.90;;;;;;5087839;28;20128;-62
2022/09/16 05:26:40;;;;;;;7.13;1.58;;;11.50;99.90;;;;;;5090463;28;20487;-63
2022/09/16 05:29:16;;;;;;;3.25;1.23;;;11.50;99.90;;;;;;5109552;27;20031;-63
2022/09/16 05:31:43;;;;;;;5.20;1.20;;;11.50;99.90;;;;;;5076744;28;20032;-62
2022/09/16 05:34:18;;;;;;;4.70;1.50;;;11.40;99.90;;;;;;5075104;28;20036;-62
2022/09/16 05:36:46;;;;;;;3.88;1.25;;;11.40;99.90;;;;;;5091939;28;20047;-62
2022/09/16 05:39:12;;;;;;;4.55;1.38;;;11.30;99.90;;;;;;5097402;28;20498;-62
2022/09/16 05:41:38;;;;;;;5.93;1.30;;;11.30;99.90;;;;;;5086986;28;20486;-62
2022/09/16 05:44:07;;;;;;;4.90;1.30;;;11.30;99.90;;;;;;5093466;28;20184;-62
2022/09/16 05:46:34;;;;;;;6.30;1.73;;;11.30;99.90;;;;;;5077174;28;20096;-62
2022/09/16 05:48:59;;;;;;;4.45;1.27;;;11.30;99.90;;;;;;5064526;28;20393;-62
2022/09/16 05:51:25;;;;;;;7.47;1.80;;;11.30;99.90;;;;;;5096313;28;20028;-62
2022/09/16 05:53:52;;;;;;;3.92;1.10;;;11.30;99.90;;;;;;5095020;28;20170;-66
2022/09/16 05:56:24;;;;;;;6.38;1.52;;;11.30;99.90;;;;;;5093246;28;20070;-62
2022/09/16 05:58:52;;;;;;;7.63;1.20;;;11.30;99.90;;;;;;5087761;28;20048;-63
2022/09/16 06:01:21;;;;;;;6.75;1.35;;;11.30;99.90;;;;;;5067126;28;20120;-63
2022/09/16 06:03:48;;;;;;;9.68;1.75;;;11.30;99.90;;;;;;5083107;28;20076;-62
2022/09/16 06:06:20;;;;;;;3.00;1.17;;;11.30;99.90;;;;;;5079742;28;20519;-62
2022/09/16 06:08:46;;;;;;;4.63;1.10;;;11.30;99.90;;;;;;5078424;28;20035;-62
2022/09/16 06:11:12;;;;;;;6.47;1.23;;;11.30;99.90;;;;;;5093025;28;20032;-62
2022/09/16 06:13:38;;;;;;;6.70;1.50;;;11.30;99.90;;;;;;5089345;28;20123;-62
2022/09/16 06:16:05;;;;;;;7.13;1.50;;;11.40;99.90;;;;;;5097702;28;20063;-62
2022/09/16 06:18:32;;;;;;;6.20;1.83;;;11.40;99.90;;;;;;5079031;28;20062;-62
2022/09/16 06:21:01;;;;;;;6.47;1.30;;;11.40;99.90;;;;;;5081483;28;20353;-64
2022/09/16 06:23:27;;;;;;;8.60;1.60;;;11.40;99.90;;;;;;5085603;28;20085;-62
2022/09/16 06:26:04;;;;;;;3.92;1.25;;;11.40;99.90;;;;;;5074447;28;20048;-62
2022/09/16 06:28:30;;;;;;;7.78;1.77;;;11.50;99.90;;;;;;5092345;28;20067;-62
2022/09/16 06:31:06;;;;;;;9.55;1.60;;;11.50;99.90;;;;;;5077558;28;20571;-62
2022/09/16 06:33:32;;;;;;;6.55;1.48;;;11.60;99.90;;;;;;5078161;28;20117;-62
2022/09/16 06:36:02;;;;;;;5.50;1.27;;;11.70;99.90;;;;;;5085696;28;20501;-63
2022/09/16 06:38:28;;;;;;;11.48;1.67;;;11.70;99.90;;;;;;5071845;28;20061;-62
2022/09/16 06:40:58;;;;;;;7.32;1.50;;;11.70;99.90;;;;;;5078104;28;21129;-63
2022/09/16 06:43:24;;;;;;;5.00;1.38;;;11.80;99.90;;;;;;5072069;28;20036;-62
2022/09/16 06:45:49;;;;;;;6.40;1.30;;;11.80;99.90;;;;;;5083471;28;20327;-62
2022/09/16 06:48:15;;;;;;;9.23;1.35;;;11.80;99.90;;;;;;5076738;28;20043;-62
2022/09/16 06:50:41;;;;;;;7.07;1.15;;;11.80;99.90;;;;;;5092754;28;20394;-62
2022/09/16 06:53:06;;;;;;;7.00;1.50;;;11.80;99.90;;;;;;5105840;28;20062;-65
2022/09/16 06:55:33;;;;;;;6.18;1.45;;;11.80;99.90;;;;;;5075295;28;20093;-63
2022/09/16 06:57:59;;;;;;;8.20;1.42;;;11.90;99.90;;;;;;5094572;28;20082;-62
2022/09/16 07:00:24;;;;;;;12.18;1.67;;;11.90;99.90;;;;;;5097042;28;20063;-62
2022/09/16 07:02:50;;;;;;;8.25;1.52;;;11.90;99.90;;;;;;5094043;28;20032;-62
2022/09/16 07:05:15;;;;;;;7.32;1.85;;;11.90;99.90;;;;;;5093959;28;20031;-62
2022/09/16 07:07:41;;;;;;;9.82;1.50;;;12.00;99.90;;;;;;5087743;28;20070;-62
2022/09/16 07:10:07;;;;;;;7.82;1.73;;;12.00;99.90;;;;;;5074449;28;20085;-64
2022/09/16 07:12:33;;;;;;;8.27;1.65;;;12.00;99.90;;;;;;5076012;28;20077;-62
2022/09/16 07:14:58;;;;;;;13.57;1.90;;;12.00;99.90;;;;;;5099483;28;20267;-62
2022/09/16 07:17:26;;;;;;;8.88;1.48;;;12.00;99.90;;;;;;5087165;28;20039;-62
2022/09/16 07:19:52;;;;;;;7.03;1.63;;;12.00;99.90;;;;;;5073106;28;20052;-63
2022/09/16 07:22:18;;;;;;;10.32;1.90;;;12.00;99.90;;;;;;5090097;28;20039;-62
2022/09/16 07:24:44;;;;;;;9.95;2.00;;;12.10;99.90;;;;;;5091661;28;20478;-62
2022/09/16 07:27:10;;;;;;;6.95;1.45;;;12.10;99.90;;;;;;5076133;28;20085;-62
2022/09/16 07:29:36;;;;;;;6.50;1.33;;;12.10;99.90;;;;;;5088616;28;20089;-62
2022/09/16 07:32:02;;;;;;;7.60;1.50;;;12.20;99.90;;;;;;5069376;28;20035;-64
2022/09/16 07:34:27;;;;;;;7.35;1.30;;;12.20;99.90;;;;;;5091993;28;20036;-64
2022/09/16 07:36:53;;;;;;;9.63;1.70;;;12.30;99.90;;;;;;5094755;28;20529;-63
2022/09/16 07:39:20;;;;;;;9.73;1.65;;;12.30;99.90;;;;;;5094851;28;20395;-62
2022/09/16 07:41:47;;;;;;;6.82;1.45;;;12.20;99.90;;;;;;5065316;28;20413;-62
2022/09/16 07:44:14;;;;;;;8.77;1.80;;;12.30;99.90;;;;;;5098402;28;20120;-62
2022/09/16 07:46:40;;;;;;;7.10;1.38;;;12.30;99.90;;;;;;5100058;28;20040;-63
2022/09/16 07:49:09;;;;;;;6.32;1.55;;;12.30;99.90;;;;;;5102819;28;20032;-63
2022/09/16 07:51:35;;;;;;;9.30;1.55;;;12.40;99.90;;;;;;5063892;28;20047;-62
2022/09/16 07:54:04;;;;;;;6.75;1.45;;;12.40;99.90;;;;;;5101704;28;20028;-62
2022/09/16 07:56:36;;;;;;;9.27;1.65;;;12.50;99.90;;;;;;5085092;28;20051;-62
2022/09/16 07:59:04;;;;;;;10.48;1.60;;;12.50;99.90;;;;;;5093186;28;20028;-62
2022/09/16 08:01:30;;;;;;;6.15;1.23;;;12.60;99.90;;;;;;5099702;28;20040;-62
2022/09/16 08:03:56;;;;;;;8.82;1.60;;;12.60;99.90;;;;;;5092833;28;20040;-62
2022/09/16 08:06:24;;;;;;;10.43;1.42;;;12.70;99.90;;;;;;5073507;28;20046;-61
2022/09/16 08:08:55;;;;;;;10.88;1.63;;;12.70;99.90;;;;;;5073613;28;20040;-63
2022/09/16 08:11:21;;;;;;;8.05;1.45;;;12.70;99.90;;;;;;5083771;28;20513;-62
2022/09/16 08:13:47;;;;;;;11.00;1.50;;;12.80;99.90;;;;;;5084121;28;20047;-61
2022/09/16 08:16:16;;;;;;;8.07;1.50;;;12.80;99.90;;;;;;5079603;28;20032;-63
2022/09/16 08:18:42;;;;;;;10.00;1.80;;;12.90;99.90;;;;;;5083256;28;20043;-61
2022/09/16 08:21:10;;;;;;;7.43;1.77;;;12.90;99.90;;;;;;5094619;28;20067;-61
2022/09/16 08:23:36;;;;;;;6.32;1.30;;;12.90;99.90;;;;;;5084123;28;20083;-61
2022/09/16 08:26:03;;;;;;;12.68;1.60;;;13.00;99.90;;;;;;5084337;28;20040;-61
2022/09/16 08:28:29;;;;;;;9.65;1.80;;;13.00;99.90;;;;;;5067813;28;20039;-61
2022/09/16 08:30:59;;;;;;;6.88;1.42;;;13.00;99.90;;;;;;5069747;28;20043;-61
2022/09/16 08:33:24;;;;;;;8.13;2.15;;;13.00;99.90;;;;;;5087854;28;20079;-62
2022/09/16 08:36:18;;;;;;;13.05;1.73;;;13.10;99.90;;;;;;5095944;28;20067;-61
2022/09/16 08:38:45;;;;;;;8.18;1.40;;;13.10;99.90;;;;;;5073633;28;20123;-61
2022/09/16 08:41:25;;;;;;;7.40;1.40;;;13.20;99.90;;;;;;5070371;28;20490;-61
2022/09/16 08:44:27;;;;;;;10.25;1.65;;;13.30;99.90;;;;;;5090551;28;20502;-65
2022/09/16 08:47:01;;;;;;;9.23;1.85;;;13.30;99.90;;;;;;5092538;28;20066;-61
2022/09/16 08:49:33;;;;;;;10.07;1.60;;;13.40;99.90;;;;;;5076354;28;20097;-61
2022/09/16 08:52:03;;;;;;;6.50;1.40;;;13.40;99.90;;;;;;5100785;28;20032;-62
2022/09/16 08:54:39;;;;;;;9.38;1.35;;;13.40;99.90;;;;;;5073648;28;20052;-61
2022/09/16 08:57:10;;;;;;;10.48;1.85;;;13.50;99.90;;;;;;5064214;28;20048;-61
2022/09/16 08:59:43;;;;;;;8.70;1.50;;;13.50;99.90;;;;;;5091080;28;20036;-63
2022/09/16 09:02:46;;;;;;;10.48;1.73;;;13.60;99.90;;;;;;5080629;28;20036;-61
2022/09/16 09:05:35;;;;;;;8.18;1.70;;;13.70;99.90;;;;;;5106728;28;20039;-63
2022/09/16 09:08:30;;;;;;;10.38;1.85;;;13.90;99.90;;;;;;5091470;28;20073;-61
2022/09/16 09:11:12;;;;;;;12.93;2.33;;;13.90;99.90;;;;;;5100590;28;20498;-64
2022/09/16 09:13:41;;;;;;;15.45;2.20;;;13.90;99.90;;;;;;5099009;28;20035;-62
2022/09/16 09:16:43;;;;;;;14.57;3.50;;;13.90;99.90;;;;;;5072276;28;20040;-63
2022/09/16 09:19:08;;;;;;;11.40;2.15;;;14.00;99.90;;;;;;5073049;28;20454;-64
2022/09/16 09:21:52;;;;;;;10.07;2.08;;;14.00;99.90;;;;;;5099068;28;20067;-61
2022/09/16 09:24:20;;;;;;;9.20;1.77;;;14.10;99.90;;;;;;5100216;28;20032;-61
2022/09/16 09:27:09;;;;;;;7.15;1.85;;;14.30;99.90;;;;;;5080569;28;20051;-61
2022/09/16 09:29:56;;;;;;;11.10;1.90;;;14.40;99.90;;;;;;5052829;28;20476;-64
2022/09/16 09:32:54;;;;;;;8.45;1.90;;;14.60;99.90;;;;;;5087635;28;20036;-62
2022/09/16 09:35:38;;;;;;;12.70;2.00;;;14.80;99.90;;;;;;5092044;28;20043;-61
2022/09/16 09:38:41;;;;;;;10.73;2.35;;;15.00;99.90;;;;;;5077705;28;20036;-62
2022/09/16 09:41:12;;;;;;;10.57;2.00;;;15.20;99.90;;;;;;5072314;28;20044;-63
2022/09/16 09:43:46;;;;;;;12.40;2.05;;;15.30;99.90;;;;;;5092161;28;20056;-63
2022/09/16 09:46:28;;;;;;;12.57;2.05;;;15.50;99.90;;;;;;5096645;28;20092;-62
2022/09/16 09:48:54;;;;;;;;;;;15.70;99.90;;;;;;5077166;28;20478;-63
2022/09/16 09:51:36;;;;;;;9.23;2.08;;;15.90;99.90;;;;;;5081425;28;19979;-64
2022/09/16 09:54:24;;;;;;;11.30;1.70;;;16.10;99.90;;;;;;5103818;27;20042;-62
2022/09/16 09:56:57;;;;;;;10.30;2.17;;;16.40;99.90;;;;;;5075527;28;20040;-62
2022/09/16 09:59:37;;;;;;;8.73;1.60;;;16.30;99.90;;;;;;5075242;28;20432;-62
2022/09/16 10:02:12;;;;;;;9.85;1.48;;;16.20;99.90;;;;;;5083398;28;20039;-62
2022/09/16 10:04:38;;;;;;;9.00;1.70;;;16.00;99.90;;;;;;5101038;28;20047;-63
2022/09/16 10:07:05;;;;;;;7.28;1.95;;;15.80;99.90;;;;;;5092484;28;20035;-66
2022/09/16 10:09:33;;;;;;;7.45;1.83;;;15.80;99.90;;;;;;5100096;28;20481;-65
2022/09/16 10:11:59;;;;;;;7.72;1.63;;;15.90;99.90;;;;;;5090499;28;20401;-65
2022/09/16 10:14:30;;;;;;;8.82;2.17;;;16.10;99.90;;;;;;5100062;28;20032;-64
2022/09/16 10:17:01;;;;;;;7.97;1.63;;;16.40;99.90;;;;;;5089420;28;20119;-64
2022/09/16 10:19:30;;;;;;;7.43;1.52;;;16.60;99.90;;;;;;5088584;28;20040;-64
2022/09/16 10:22:22;;;;;;;9.82;2.00;;;16.80;99.90;;;;;;5092748;28;20127;-65
2022/09/16 10:24:56;;;;;;;11.52;2.10;;;17.00;99.90;;;;;;5066080;28;20512;-64
2022/09/16 10:27:35;;;;;;;6.40;1.70;;;17.00;99.80;;;;;;5072401;28;20588;-64
2022/09/16 10:30:16;;;;;;;7.43;1.50;;;17.10;99.90;;;;;;5076799;28;20036;-64
2022/09/16 10:32:46;;;;;;;10.88;1.70;;;17.20;99.10;;;;;;5080567;28;20505;-64
2022/09/16 10:35:27;;;;;;;8.32;1.60;;;17.30;99.80;;;;;;5093970;28;20106;-64
2022/09/16 10:38:02;;;;;;;8.27;1.55;;;17.20;99.80;;;;;;5093357;28;20040;-65
2022/09/16 10:40:28;;;;;;;5.45;1.50;;;16.90;99.90;;;;;;5078917;28;20047;-64
2022/09/16 10:43:02;;;;;;;7.68;1.70;;;16.60;99.90;;;;;;5081305;28;20495;-65
2022/09/16 10:45:45;;;;;;;7.82;1.55;;;16.30;99.90;;;;;;5093495;28;20044;-64
2022/09/16 10:48:14;;;;;;;8.50;1.58;;;16.20;99.90;;;;;;5089122;28;20056;-63
2022/09/16 10:51:01;;;;;;;11.98;1.85;;;16.20;99.90;;;;;;5100517;28;20036;-64
2022/09/16 10:53:33;;;;;;;8.15;2.00;;;16.30;99.90;;;;;;5091897;28;20036;-64
2022/09/16 10:56:04;;;;;;;10.55;2.17;;;16.50;99.90;;;;;;5090836;28;20036;-63
2022/09/16 10:58:31;;;;;;;10.27;1.95;;;16.70;99.90;;;;;;5091745;28;20114;-65
2022/09/16 11:01:03;;;;;;;8.90;2.22;;;17.00;99.90;;;;;;5076450;28;20051;-65
2022/09/16 11:03:32;;;;;;;9.30;1.65;;;17.20;99.90;;;;;;5072977;28;20046;-64
2022/09/16 11:06:25;;;;;;;9.38;2.63;;;17.40;99.90;;;;;;5076245;28;20072;-63
2022/09/16 11:09:09;;;;;;;10.50;2.05;;;17.30;99.90;;;;;;5073825;28;20406;-64
2022/09/16 11:11:41;;;;;;;5.95;2.03;;;17.10;98.70;;;;;;5081781;28;20094;-64
2022/09/16 11:14:13;;;;;;;;;;;16.80;99.10;;;;;;5070209;28;20036;-64
2022/09/16 11:17:13;;;;;;;8.60;1.83;;;16.70;98.60;;;;;;5091011;28;19919;-64
2022/09/16 11:19:53;;;;;;;8.93;1.70;;;16.80;98.80;;;;;;4989633;28;20115;-65
2022/09/16 11:22:37;;;;;;;11.27;1.95;;;17.00;99.50;;;;;;5082201;28;20039;-65
2022/09/16 11:25:15;;;;;;;9.82;2.05;;;17.30;99.10;;;;;;5062481;28;20036;-64
2022/09/16 11:28:17;;;;;;;5.38;1.75;;;17.50;99.80;;;;;;5072603;28;20052;-64
2022/09/16 11:31:24;;;;;;;8.77;1.75;;;17.80;97.60;;;;;;5075426;28;20044;-64
2022/09/16 11:34:09;;;;;;;6.55;1.58;;;17.90;97.50;;;;;;5083842;28;20388;-62
2022/09/16 11:36:52;;;;;;;8.45;1.58;;;18.00;97.50;;;;;;5089287;28;20039;-64
2022/09/16 11:39:47;;;;;;;7.80;1.70;;;18.10;95.90;;;;;;5084984;28;20040;-64
2022/09/16 11:42:15;;;;;;;8.40;2.08;;;18.10;95.90;;;;;;5095901;28;20032;-61
2022/09/16 11:44:45;;;;;;;8.38;1.63;;;18.30;96.60;;;;;;5076602;28;20035;-64
2022/09/16 11:47:16;;;;;;;9.35;1.50;;;18.40;96.20;;;;;;5066616;28;20093;-64
2022/09/16 11:50:01;;;;;;;6.78;2.05;;;18.50;95.60;;;;;;5068887;28;20117;-65
2022/09/16 11:52:33;;;;;;;6.40;1.60;;;18.70;95.90;;;;;;5087614;28;20032;-64
2022/09/16 11:55:32;;;;;;;9.20;1.98;;;18.80;95.10;;;;;;5067098;28;20129;-65
2022/09/16 11:58:02;;;;;;;9.43;1.80;;;18.60;93.60;;;;;;5096564;28;20040;-65
2022/09/16 12:00:31;;;;;;;8.85;1.70;;;18.30;94.40;;;;;;5088207;28;20036;-65
2022/09/16 12:03:07;;;;;;;5.70;1.27;;;18.10;94.60;;;;;;5084514;28;20071;-64
2022/09/16 12:05:38;;;;;;;6.15;1.38;;;18.00;94.70;;;;;;5093241;28;20032;-64
2022/09/16 12:08:06;;;;;;;7.90;1.50;;;18.00;95.10;;;;;;5090089;28;20394;-64
2022/09/16 12:10:55;;;;;;;6.78;1.42;;;18.10;95.00;;;;;;5078098;28;20451;-65
2022/09/16 12:13:36;;;;;;;5.38;1.42;;;18.20;94.00;;;;;;5067252;28;20040;-64
2022/09/16 12:16:04;;;;;;;7.57;1.55;;;18.20;93.00;;;;;;5080477;28;20092;-62
2022/09/16 12:18:41;;;;;;;7.13;1.42;;;18.30;93.80;;;;;;5082334;28;20060;-62
2022/09/16 12:21:23;;;;;;;5.55;1.50;;;18.50;93.80;;;;;;5090585;28;20048;-64
2022/09/16 12:24:08;;;;;;;6.32;1.50;;;18.50;91.90;;;;;;5073306;28;20044;-64
2022/09/16 12:26:40;;;;;;;6.10;1.42;;;18.50;92.40;;;;;;5103520;28;20036;-63
2022/09/16 12:29:34;;;;;;;16.02;2.78;;;18.50;92.00;;;;;;5078813;28;20028;-65
2022/09/16 12:32:04;;;;;;;9.48;2.13;;;18.20;92.40;;;;;;5091438;28;20405;-63
2022/09/16 12:34:52;;;;;;;7.30;1.17;;;17.70;94.80;;;;;;5085045;28;20032;-64
2022/09/16 12:37:44;;;;;;;4.75;1.05;;;17.30;97.10;;;;;;5081841;28;20386;-64
2022/09/16 12:40:24;;;;;;;11.50;1.73;;;17.10;99.60;;;;;;5088914;28;20418;-61
2022/09/16 12:43:08;;;;;;;9.00;1.50;;;17.00;99.90;;;;;;5086376;28;20043;-64
2022/09/16 12:45:41;;;;;;;7.15;1.70;;;17.10;99.90;;;;;;5093949;28;20036;-64
2022/09/16 12:48:32;;;;;;;7.18;1.85;;;17.10;99.90;;;;;;5067508;28;20063;-64
2022/09/16 12:51:29;;;;;;;10.15;1.80;;;16.90;99.90;;;;;;5107059;28;20072;-64
2022/09/16 12:54:15;;;;;;;5.13;1.50;;;16.60;99.90;;;;;;5090952;28;21951;-63
2022/09/16 12:56:47;;;;;;;5.43;1.40;;;16.60;99.90;;;;;;5080506;28;20067;-64
2022/09/16 12:59:48;;;;;;;4.70;1.13;;;16.60;99.90;;;;;;5095716;28;20101;-63
2022/09/16 13:02:19;;;;;;;7.53;1.60;;;16.70;99.90;;;;;;5075120;28;20044;-63
2022/09/16 13:04:51;;;;;;;5.70;1.42;;;16.70;99.90;;;;;;5089293;28;20043;-63
2022/09/16 13:07:24;;;;;;;9.32;1.75;;;16.80;99.90;;;;;;5101370;28;20101;-64
2022/09/16 13:10:15;;;;;;;7.45;1.65;;;16.80;99.90;;;;;;5083039;28;20044;-64
2022/09/16 13:12:48;;;;;;;7.13;2.10;;;16.70;99.90;;;;;;5068021;28;20044;-63
2022/09/16 13:15:35;;;;;;;7.75;1.60;;;16.60;99.90;;;;;;5086039;28;20040;-64